Bis 31.12.2009 Daten WS2500, ab 01.01.2010 Daten VP2
Wetterdaten: aktuell Freitag, 12.08.2022 04:40
Datum Zeit Temp. I. Temp. A. Solar B3 Feuchte I. Feuchte A. Feuchte 4 Luftdruck Regen Wind Richtung Richtung Sonnenschein T Regen ET UV Solar Taupunkt Windchill Windben Empfang
12.08.2022 04:40 20,8 C 15,3 C 0,0 C 42 % 64 % 0 % 1020,6 hPa 0,0 l/m 0,9 km/h (0 Bft) S 174 0 min 0 min 0,026 mm 0,0 UV-I 0 W/m 8,5 C 15,3 C 3,2 km/h (1 Bft) 76,92 %
12.08.2022 03:40 21,1 C 15,9 C 0,0 C 40 % 62 % 0 % 1020,7 hPa 0,0 l/m 0,0 km/h (0 Bft) S 174 0 min 0 min 0,050 mm 0,0 UV-I 0 W/m 8,6 C 15,9 C 0,0 km/h (0 Bft) 75,41 %
12.08.2022 02:40 21,4 C 17,7 C 0,0 C 39 % 56 % 0 % 1020,6 hPa 0,0 l/m 0,0 km/h (0 Bft) S 174 0 min 0 min 0,051 mm 0,0 UV-I 0 W/m 8,8 C 17,7 C 0,0 km/h (0 Bft) 71,43 %
12.08.2022 01:40 21,6 C 20,4 C 0,0 C 38 % 46 % 0 % 1020,8 hPa 0,0 l/m 0,1 km/h (0 Bft) S 174 0 min 0 min 0,051 mm 0,0 UV-I 0 W/m 8,4 C 20,4 C 1,6 km/h (1 Bft) 62,00 %
12.08.2022 00:40 21,7 C 21,1 C 0,0 C 36 % 44 % 0 % 1021,0 hPa 0,0 l/m 1,4 km/h (1 Bft) S 174 0 min 0 min 0,000 mm 0,0 UV-I 0 W/m 8,4 C 21,1 C 3,2 km/h (1 Bft) 68,75 %
11.08.2022 23:40 22,0 C 22,1 C 0,0 C 35 % 41 % 0 % 1021,0 hPa 0,0 l/m 1,0 km/h (0 Bft) S 174 0 min 0 min 0,051 mm 0,0 UV-I 0 W/m 8,2 C 22,1 C 1,6 km/h (1 Bft) 66,67 %
11.08.2022 22:40 22,2 C 22,6 C 0,0 C 35 % 40 % 0 % 1020,8 hPa 0,0 l/m 0,0 km/h (0 Bft) S 174 0 min 0 min 0,025 mm 0,0 UV-I 0 W/m 8,3 C 22,6 C 0,0 km/h (0 Bft) 69,77 %
11.08.2022 21:40 22,5 C 24,8 C 0,0 C 35 % 35 % 0 % 1020,6 hPa 0,0 l/m 0,0 km/h (0 Bft) S 174 0 min 0 min 0,051 mm 0,0 UV-I 0 W/m 8,3 C 24,8 C 0,0 km/h (0 Bft) 68,75 %
11.08.2022 20:40 22,8 C 26,8 C 0,0 C 35 % 32 % 0 % 1020,3 hPa 0,0 l/m 0,0 km/h (0 Bft) S 174 0 min 0 min 0,076 mm 0,0 UV-I 12 W/m 8,7 C 26,8 C 0,0 km/h (0 Bft) 70,27 %
11.08.2022 19:40 22,8 C 27,9 C 0,0 C 36 % 30 % 0 % 1019,9 hPa 0,0 l/m 3,6 km/h (1 Bft) S 174 0 min 0 min 0,102 mm 0,0 UV-I 25 W/m 8,7 C 27,9 C 8,0 km/h (2 Bft) 66,67 %
11.08.2022 18:40 24,0 C 28,7 C 0,0 C 34 % 28 % 0 % 1020,0 hPa 0,0 l/m 5,5 km/h (1 Bft) S 174 0 min 0 min 0,203 mm 0,0 UV-I 49 W/m 8,4 C 28,7 C 9,7 km/h (2 Bft) 76,92 %
11.08.2022 17:40 26,8 C 29,3 C 0,0 C 32 % 29 % 0 % 1020,3 hPa 0,0 l/m 4,8 km/h (1 Bft) S 174 54 min 0 min 0,457 mm 0,9 UV-I 62 W/m 9,4 C 29,3 C 9,7 km/h (2 Bft) 74,00 %
11.08.2022 16:40 28,3 C 30,6 C 0,0 C 31 % 27 % 0 % 1020,7 hPa 0,0 l/m 1,3 km/h (1 Bft) S 174 60 min 0 min 0,508 mm 2,7 UV-I 605 W/m 9,4 C 30,6 C 3,2 km/h (1 Bft) 70,00 %
11.08.2022 15:40 29,9 C 30,8 C 0,0 C 29 % 27 % 0 % 1021,1 hPa 0,0 l/m 2,2 km/h (1 Bft) S 174 60 min 0 min 0,585 mm 3,8 UV-I 712 W/m 9,6 C 30,8 C 6,4 km/h (2 Bft) 69,39 %
11.08.2022 14:40 30,1 C 29,6 C 0,0 C 31 % 30 % 0 % 1021,6 hPa 0,0 l/m 1,6 km/h (1 Bft) S 174 60 min 0 min 0,381 mm 4,7 UV-I 801 W/m 10,2 C 29,6 C 3,2 km/h (1 Bft) 67,50 %
11.08.2022 13:40 26,3 C 28,7 C 0,0 C 35 % 30 % 0 % 1022,4 hPa 0,0 l/m 6,6 km/h (2 Bft) S 174 14 min 0 min 0,406 mm 4,7 UV-I 522 W/m 9,4 C 28,7 C 12,9 km/h (3 Bft) 76,00 %
11.08.2022 12:40 24,4 C 28,4 C 0,0 C 37 % 33 % 0 % 1023,2 hPa 0,0 l/m 5,4 km/h (1 Bft) S 174 54 min 0 min 0,533 mm 3,0 UV-I 232 W/m 10,6 C 28,4 C 9,7 km/h (2 Bft) 82,00 %
11.08.2022 11:40 24,0 C 27,5 C 0,0 C 38 % 34 % 0 % 1023,5 hPa 0,0 l/m 4,0 km/h (1 Bft) S 174 60 min 0 min 0,458 mm 3,9 UV-I 758 W/m 10,2 C 27,5 C 9,7 km/h (2 Bft) 72,00 %
11.08.2022 10:42 23,6 C 27,1 C 0,0 C 39 % 36 % 0 % 1023,8 hPa 0,0 l/m 5,0 km/h (1 Bft) S 174 60 min 0 min 0,355 mm 2,8 UV-I 652 W/m 10,7 C 27,1 C 9,7 km/h (2 Bft) 78,85 %
11.08.2022 09:40 23,0 C 24,7 C 0,0 C 40 % 41 % 0 % 1023,7 hPa 0,0 l/m 4,0 km/h (1 Bft) S 174 58 min 0 min 0,178 mm 1,7 UV-I 499 W/m 10,6 C 24,7 C 9,7 km/h (2 Bft) 77,78 %
11.08.2022 08:16 21,3 C 20,3 C 0,0 C 42 % 53 % 0 % 1024,0 hPa 0,0 l/m 0,0 km/h (0 Bft) N 0 38 min 0 min 0,051 mm 0,6 UV-I 255 W/m 10,4 C 20,3 C 0,0 km/h (0 Bft) 73,91 %
11.08.2022 06:54 20,6 C 16,3 C 0,0 C 43 % 61 % 0 % 1023,7 hPa 0,0 l/m 0,0 km/h (0 Bft) S 174 0 min 0 min 0,000 mm 0,0 UV-I 18 W/m 8,8 C 16,3 C 0,0 km/h (0 Bft) 76,60 %
11.08.2022 05:54 20,6 C 17,4 C 0,0 C 40 % 56 % 0 % 1023,6 hPa 0,0 l/m 0,0 km/h (0 Bft) S 174 0 min 0 min 0,051 mm 0,0 UV-I 0 W/m 8,5 C 17,4 C 0,0 km/h (0 Bft) 76,60 %
11.08.2022 05:00 20,8 C 19,2 C 0,0 C 38 % 51 % 0 % 1023,7 hPa 0,0 l/m 1,9 km/h (1 Bft) S 174 0 min 0 min 0,051 mm 0,0 UV-I 0 W/m 8,8 C 19,2 C 3,2 km/h (1 Bft) 78,18 %
_ Min-Zeit 05:54 04:30 05:00 15:14 15:56 05:00 18:22 - 05:03 - - - - - - - 21:34 04:30 05:12 15:16
Minimum _ 20,6 C 14,9 C 0,0 C 28 % 25 % 0 % 1019,9 hPa - 0,0 km/h (0 Bft) - - - - - - - 7,9 C 14,9 C 0,0 km/h (0 Bft) 57,89 %
_ Max-Zeit 15:10 15:48 05:00 06:30 04:30 05:00 08:04 05:00 10:05 - - 08:34 05:00 15:00 13:48 14:03 08:38 15:48 11:05 06:22
Maximum _ 31,1 C 31,1 C 0,0 C 43 % 66 % 0 % 1024,1 hPa 0,0 l/m 11,3 km/h
S (2 Bft)
- - 15 min 0 min 0,585 mm 5,0 UV-I 830 W/m 11,5 C 31,1 C 16,1 km/h
S (3 Bft)
91,67 %
Durchschnitt _ 23,3 C 23,8 C 0,0 C 37 % 41 % 0 % 1021,9 hPa #0,0 l/m 2,2 km/h (1 Bft) S - #0 min. #0 min. #0,178 mm 0,0 UV-I 0 W/m 9,2 C 23,8 C 4,7 km/h (1 Bft) 73,17 %